Terminal Aerodrome Forecast
Issued by NWS Medford, OR

Home | Current Version | Previous Version | Text Only | Print | Product List | Glossary On
Versions: 1 2 3 4 5 6 7 8 9 10 11 12 13 14 15 16 17 18 19 20
436
FTUS46 KMFR 042320
TAFMFR
TAF
KMFR 042320Z 0500/0524 34008KT P6SM -SHRA SCT010 OVC035
     FM050600 VRB03KT P6SM OVC008
     FM051000 00000KT 2SM BR OVC002
     FM051800 VRB03KT P6SM SCT005 OVC035
     FM052200 VRB03KT P6SM -RA OVC035=

USA.gov is the U.S. government's official web portal to all federal, state and local government web resources and services.